sensor_id;sensor_type;location;lat;lon;timestamp;P1;durP1;ratioP1;P2;durP2;ratioP2
56830;SDS011;42713;42.676;23.352;2022-12-18T00:02:06;10.75;;;5.70;;
56830;SDS011;42713;42.676;23.352;2022-12-18T00:04:31;10.18;;;4.97;;
56830;SDS011;42713;42.676;23.352;2022-12-18T00:06:57;10.93;;;5.00;;
56830;SDS011;42713;42.676;23.352;2022-12-18T00:09:23;11.65;;;5.88;;
56830;SDS011;42713;42.676;23.352;2022-12-18T00:11:49;12.35;;;5.82;;
56830;SDS011;42713;42.676;23.352;2022-12-18T00:14:14;10.25;;;5.22;;
56830;SDS011;42713;42.676;23.352;2022-12-18T00:16:42;12.02;;;6.20;;
56830;SDS011;42713;42.676;23.352;2022-12-18T00:19:09;12.07;;;5.95;;
56830;SDS011;42713;42.676;23.352;2022-12-18T00:21:35;14.73;;;6.05;;
56830;SDS011;42713;42.676;23.352;2022-12-18T00:24:00;12.15;;;6.18;;
56830;SDS011;42713;42.676;23.352;2022-12-18T00:26:27;11.85;;;5.95;;
56830;SDS011;42713;42.676;23.352;2022-12-18T00:28:57;11.30;;;6.03;;
56830;SDS011;42713;42.676;23.352;2022-12-18T00:31:24;14.35;;;6.43;;
56830;SDS011;42713;42.676;23.352;2022-12-18T00:33:51;13.70;;;6.85;;
56830;SDS011;42713;42.676;23.352;2022-12-18T00:36:25;13.85;;;7.05;;
56830;SDS011;42713;42.676;23.352;2022-12-18T00:38:53;12.73;;;6.55;;
56830;SDS011;42713;42.676;23.352;2022-12-18T00:41:20;12.88;;;6.60;;
56830;SDS011;42713;42.676;23.352;2022-12-18T00:44:05;12.65;;;6.60;;
56830;SDS011;42713;42.676;23.352;2022-12-18T00:46:32;13.10;;;6.55;;
56830;SDS011;42713;42.676;23.352;2022-12-18T00:48:58;14.45;;;6.82;;
56830;SDS011;42713;42.676;23.352;2022-12-18T00:51:24;11.38;;;5.68;;
56830;SDS011;42713;42.676;23.352;2022-12-18T00:53:50;10.93;;;4.80;;
56830;SDS011;42713;42.676;23.352;2022-12-18T00:56:16;14.52;;;5.55;;
56830;SDS011;42713;42.676;23.352;2022-12-18T00:58:42;11.05;;;4.95;;
56830;SDS011;42713;42.676;23.352;2022-12-18T01:01:07;10.98;;;5.72;;
56830;SDS011;42713;42.676;23.352;2022-12-18T01:03:33;11.90;;;5.47;;
56830;SDS011;42713;42.676;23.352;2022-12-18T01:06:04;15.15;;;5.75;;
56830;SDS011;42713;42.676;23.352;2022-12-18T01:08:36;13.18;;;6.00;;
56830;SDS011;42713;42.676;23.352;2022-12-18T01:11:09;13.25;;;5.93;;
56830;SDS011;42713;42.676;23.352;2022-12-18T01:13:39;11.07;;;5.97;;
56830;SDS011;42713;42.676;23.352;2022-12-18T01:16:05;12.63;;;6.25;;
56830;SDS011;42713;42.676;23.352;2022-12-18T01:18:31;13.15;;;6.13;;
56830;SDS011;42713;42.676;23.352;2022-12-18T01:20:57;12.30;;;6.30;;
56830;SDS011;42713;42.676;23.352;2022-12-18T01:23:25;11.93;;;6.20;;
56830;SDS011;42713;42.676;23.352;2022-12-18T01:25:51;11.85;;;6.25;;
56830;SDS011;42713;42.676;23.352;2022-12-18T01:28:16;14.23;;;6.80;;
56830;SDS011;42713;42.676;23.352;2022-12-18T01:30:42;13.25;;;7.28;;
56830;SDS011;42713;42.676;23.352;2022-12-18T01:33:07;12.80;;;6.72;;
56830;SDS011;42713;42.676;23.352;2022-12-18T01:35:33;12.52;;;7.18;;
56830;SDS011;42713;42.676;23.352;2022-12-18T01:38:05;13.90;;;7.10;;
56830;SDS011;42713;42.676;23.352;2022-12-18T01:40:30;14.93;;;7.57;;
56830;SDS011;42713;42.676;23.352;2022-12-18T01:42:56;14.40;;;6.65;;
56830;SDS011;42713;42.676;23.352;2022-12-18T01:45:24;15.02;;;7.47;;
56830;SDS011;42713;42.676;23.352;2022-12-18T01:53:17;14.30;;;6.82;;
56830;SDS011;42713;42.676;23.352;2022-12-18T01:55:53;14.50;;;6.78;;
56830;SDS011;42713;42.676;23.352;2022-12-18T01:58:23;13.35;;;6.65;;
56830;SDS011;42713;42.676;23.352;2022-12-18T02:00:55;11.35;;;5.70;;
56830;SDS011;42713;42.676;23.352;2022-12-18T02:03:21;13.25;;;6.68;;
56830;SDS011;42713;42.676;23.352;2022-12-18T02:05:59;15.32;;;6.78;;
56830;SDS011;42713;42.676;23.352;2022-12-18T02:08:32;13.05;;;6.15;;
56830;SDS011;42713;42.676;23.352;2022-12-18T02:11:17;11.60;;;6.07;;
56830;SDS011;42713;42.676;23.352;2022-12-18T02:13:48;14.00;;;6.47;;
56830;SDS011;42713;42.676;23.352;2022-12-18T02:16:44;16.10;;;7.25;;
56830;SDS011;42713;42.676;23.352;2022-12-18T02:27:49;12.45;;;5.90;;
56830;SDS011;42713;42.676;23.352;2022-12-18T02:30:16;12.05;;;5.65;;
56830;SDS011;42713;42.676;23.352;2022-12-18T02:32:47;14.27;;;6.40;;
56830;SDS011;42713;42.676;23.352;2022-12-18T02:35:18;13.25;;;6.70;;
56830;SDS011;42713;42.676;23.352;2022-12-18T02:37:48;14.23;;;5.85;;
56830;SDS011;42713;42.676;23.352;2022-12-18T02:40:15;12.18;;;6.15;;
56830;SDS011;42713;42.676;23.352;2022-12-18T02:42:42;11.73;;;5.68;;
56830;SDS011;42713;42.676;23.352;2022-12-18T02:45:07;13.45;;;6.20;;
56830;SDS011;42713;42.676;23.352;2022-12-18T02:47:36;13.05;;;5.85;;
56830;SDS011;42713;42.676;23.352;2022-12-18T02:52:47;15.75;;;6.85;;
56830;SDS011;42713;42.676;23.352;2022-12-18T02:55:49;12.70;;;6.57;;
56830;SDS011;42713;42.676;23.352;2022-12-18T03:02:20;15.52;;;6.90;;
56830;SDS011;42713;42.676;23.352;2022-12-18T03:04:39;14.25;;;7.30;;
56830;SDS011;42713;42.676;23.352;2022-12-18T03:07:15;12.57;;;6.75;;
56830;SDS011;42713;42.676;23.352;2022-12-18T03:09:46;13.50;;;6.95;;
56830;SDS011;42713;42.676;23.352;2022-12-18T03:12:19;15.30;;;7.63;;
56830;SDS011;42713;42.676;23.352;2022-12-18T03:15:09;12.35;;;6.75;;
56830;SDS011;42713;42.676;23.352;2022-12-18T03:17:41;13.02;;;6.90;;
56830;SDS011;42713;42.676;23.352;2022-12-18T03:22:42;13.75;;;6.30;;
56830;SDS011;42713;42.676;23.352;2022-12-18T03:25:13;11.73;;;5.50;;
56830;SDS011;42713;42.676;23.352;2022-12-18T03:27:42;10.77;;;6.15;;
56830;SDS011;42713;42.676;23.352;2022-12-18T03:30:12;12.65;;;5.95;;
56830;SDS011;42713;42.676;23.352;2022-12-18T03:32:42;11.85;;;6.25;;
56830;SDS011;42713;42.676;23.352;2022-12-18T03:35:13;12.52;;;6.03;;
56830;SDS011;42713;42.676;23.352;2022-12-18T03:37:46;14.18;;;6.45;;
56830;SDS011;42713;42.676;23.352;2022-12-18T03:40:11;14.43;;;7.13;;
56830;SDS011;42713;42.676;23.352;2022-12-18T03:50:36;14.43;;;6.82;;
56830;SDS011;42713;42.676;23.352;2022-12-18T03:55:52;13.47;;;6.17;;
56830;SDS011;42713;42.676;23.352;2022-12-18T03:58:21;12.15;;;6.40;;
56830;SDS011;42713;42.676;23.352;2022-12-18T04:00:49;14.25;;;6.75;;
56830;SDS011;42713;42.676;23.352;2022-12-18T04:03:18;12.57;;;6.13;;
56830;SDS011;42713;42.676;23.352;2022-12-18T04:05:46;13.73;;;6.57;;
56830;SDS011;42713;42.676;23.352;2022-12-18T04:08:15;13.88;;;5.93;;
56830;SDS011;42713;42.676;23.352;2022-12-18T04:10:41;14.30;;;6.55;;
56830;SDS011;42713;42.676;23.352;2022-12-18T04:13:06;15.07;;;6.53;;
56830;SDS011;42713;42.676;23.352;2022-12-18T04:15:35;14.65;;;6.63;;
56830;SDS011;42713;42.676;23.352;2022-12-18T04:18:02;13.70;;;6.63;;
56830;SDS011;42713;42.676;23.352;2022-12-18T04:20:28;13.90;;;6.85;;
56830;SDS011;42713;42.676;23.352;2022-12-18T04:22:54;14.48;;;7.05;;
56830;SDS011;42713;42.676;23.352;2022-12-18T04:25:20;15.15;;;7.78;;
56830;SDS011;42713;42.676;23.352;2022-12-18T04:27:47;15.10;;;7.95;;
56830;SDS011;42713;42.676;23.352;2022-12-18T04:30:12;14.27;;;7.30;;
56830;SDS011;42713;42.676;23.352;2022-12-18T04:32:38;15.73;;;7.20;;
56830;SDS011;42713;42.676;23.352;2022-12-18T04:35:04;15.95;;;7.68;;
56830;SDS011;42713;42.676;23.352;2022-12-18T04:37:31;16.00;;;7.80;;
56830;SDS011;42713;42.676;23.352;2022-12-18T04:39:59;14.95;;;6.88;;
56830;SDS011;42713;42.676;23.352;2022-12-18T04:42:24;16.20;;;8.52;;
56830;SDS011;42713;42.676;23.352;2022-12-18T04:44:50;17.52;;;8.13;;
56830;SDS011;42713;42.676;23.352;2022-12-18T04:47:15;16.25;;;8.05;;
56830;SDS011;42713;42.676;23.352;2022-12-18T04:49:41;16.50;;;7.97;;
56830;SDS011;42713;42.676;23.352;2022-12-18T04:52:06;18.27;;;8.70;;
56830;SDS011;42713;42.676;23.352;2022-12-18T04:54:32;15.77;;;8.25;;
56830;SDS011;42713;42.676;23.352;2022-12-18T04:56:57;19.40;;;8.27;;
56830;SDS011;42713;42.676;23.352;2022-12-18T04:59:23;14.95;;;7.85;;
56830;SDS011;42713;42.676;23.352;2022-12-18T05:01:48;15.98;;;8.13;;
56830;SDS011;42713;42.676;23.352;2022-12-18T05:04:14;18.20;;;8.70;;
56830;SDS011;42713;42.676;23.352;2022-12-18T05:06:39;18.65;;;9.00;;
56830;SDS011;42713;42.676;23.352;2022-12-18T05:09:05;20.65;;;8.63;;
56830;SDS011;42713;42.676;23.352;2022-12-18T05:11:30;22.10;;;10.07;;
56830;SDS011;42713;42.676;23.352;2022-12-18T05:13:56;18.25;;;9.50;;
56830;SDS011;42713;42.676;23.352;2022-12-18T05:16:21;21.30;;;10.18;;
56830;SDS011;42713;42.676;23.352;2022-12-18T05:18:47;18.88;;;8.70;;
56830;SDS011;42713;42.676;23.352;2022-12-18T05:21:12;17.63;;;8.93;;
56830;SDS011;42713;42.676;23.352;2022-12-18T05:23:38;17.38;;;9.48;;
56830;SDS011;42713;42.676;23.352;2022-12-18T05:26:04;18.60;;;9.85;;
56830;SDS011;42713;42.676;23.352;2022-12-18T05:28:33;19.50;;;10.23;;
56830;SDS011;42713;42.676;23.352;2022-12-18T05:31:00;20.35;;;10.98;;
56830;SDS011;42713;42.676;23.352;2022-12-18T05:33:29;20.20;;;10.38;;
56830;SDS011;42713;42.676;23.352;2022-12-18T05:35:57;23.50;;;11.27;;
56830;SDS011;42713;42.676;23.352;2022-12-18T05:38:25;19.25;;;9.82;;
56830;SDS011;42713;42.676;23.352;2022-12-18T05:40:52;19.92;;;9.77;;
56830;SDS011;42713;42.676;23.352;2022-12-18T05:43:18;22.02;;;10.25;;
56830;SDS011;42713;42.676;23.352;2022-12-18T05:45:45;20.20;;;9.63;;
56830;SDS011;42713;42.676;23.352;2022-12-18T05:48:12;20.77;;;9.88;;
56830;SDS011;42713;42.676;23.352;2022-12-18T05:50:38;20.92;;;9.40;;
56830;SDS011;42713;42.676;23.352;2022-12-18T05:53:06;20.02;;;10.27;;
56830;SDS011;42713;42.676;23.352;2022-12-18T05:55:35;19.05;;;10.20;;
56830;SDS011;42713;42.676;23.352;2022-12-18T05:58:03;23.55;;;11.48;;
56830;SDS011;42713;42.676;23.352;2022-12-18T06:00:30;19.50;;;10.70;;
56830;SDS011;42713;42.676;23.352;2022-12-18T06:02:57;19.67;;;10.32;;
56830;SDS011;42713;42.676;23.352;2022-12-18T06:05:23;22.73;;;11.38;;
56830;SDS011;42713;42.676;23.352;2022-12-18T06:07:48;25.33;;;12.40;;
56830;SDS011;42713;42.676;23.352;2022-12-18T06:10:14;25.17;;;11.75;;
56830;SDS011;42713;42.676;23.352;2022-12-18T06:12:39;25.05;;;11.80;;
56830;SDS011;42713;42.676;23.352;2022-12-18T06:15:06;21.90;;;11.45;;
56830;SDS011;42713;42.676;23.352;2022-12-18T06:17:32;22.15;;;11.45;;
56830;SDS011;42713;42.676;23.352;2022-12-18T06:19:58;23.92;;;11.68;;
56830;SDS011;42713;42.676;23.352;2022-12-18T06:22:24;25.27;;;11.95;;
56830;SDS011;42713;42.676;23.352;2022-12-18T06:24:50;25.52;;;12.23;;
56830;SDS011;42713;42.676;23.352;2022-12-18T06:27:16;19.45;;;9.95;;
56830;SDS011;42713;42.676;23.352;2022-12-18T06:29:41;21.02;;;10.32;;
56830;SDS011;42713;42.676;23.352;2022-12-18T06:32:07;20.08;;;10.65;;
56830;SDS011;42713;42.676;23.352;2022-12-18T06:34:33;24.95;;;11.50;;
56830;SDS011;42713;42.676;23.352;2022-12-18T06:36:59;22.88;;;11.65;;
56830;SDS011;42713;42.676;23.352;2022-12-18T06:39:24;23.30;;;11.57;;
56830;SDS011;42713;42.676;23.352;2022-12-18T06:41:52;20.27;;;11.07;;
56830;SDS011;42713;42.676;23.352;2022-12-18T06:44:17;27.80;;;11.55;;
56830;SDS011;42713;42.676;23.352;2022-12-18T06:46:43;20.70;;;10.52;;
56830;SDS011;42713;42.676;23.352;2022-12-18T06:49:08;23.63;;;12.30;;
56830;SDS011;42713;42.676;23.352;2022-12-18T06:51:34;22.45;;;11.35;;
56830;SDS011;42713;42.676;23.352;2022-12-18T06:54:00;22.60;;;11.82;;
56830;SDS011;42713;42.676;23.352;2022-12-18T06:56:26;25.15;;;11.20;;
56830;SDS011;42713;42.676;23.352;2022-12-18T06:58:53;24.52;;;11.25;;
56830;SDS011;42713;42.676;23.352;2022-12-18T07:01:18;21.73;;;11.48;;
56830;SDS011;42713;42.676;23.352;2022-12-18T07:03:44;21.30;;;10.32;;
56830;SDS011;42713;42.676;23.352;2022-12-18T07:06:16;22.38;;;10.70;;
56830;SDS011;42713;42.676;23.352;2022-12-18T07:08:43;22.73;;;11.60;;
56830;SDS011;42713;42.676;23.352;2022-12-18T07:11:10;23.67;;;11.13;;
56830;SDS011;42713;42.676;23.352;2022-12-18T07:13:35;21.73;;;11.13;;
56830;SDS011;42713;42.676;23.352;2022-12-18T07:16:08;21.95;;;10.52;;
56830;SDS011;42713;42.676;23.352;2022-12-18T07:18:35;23.95;;;11.35;;
56830;SDS011;42713;42.676;23.352;2022-12-18T07:21:06;21.45;;;10.68;;
56830;SDS011;42713;42.676;23.352;2022-12-18T07:23:34;23.15;;;11.23;;
56830;SDS011;42713;42.676;23.352;2022-12-18T07:26:04;23.77;;;10.73;;
56830;SDS011;42713;42.676;23.352;2022-12-18T07:28:31;20.90;;;10.83;;
56830;SDS011;42713;42.676;23.352;2022-12-18T07:30:58;19.13;;;9.68;;
56830;SDS011;42713;42.676;23.352;2022-12-18T07:33:31;25.33;;;13.00;;
56830;SDS011;42713;42.676;23.352;2022-12-18T07:36:01;23.15;;;12.55;;
56830;SDS011;42713;42.676;23.352;2022-12-18T07:38:28;25.48;;;12.88;;
56830;SDS011;42713;42.676;23.352;2022-12-18T07:40:53;28.67;;;12.10;;
56830;SDS011;42713;42.676;23.352;2022-12-18T07:43:19;26.77;;;13.10;;
56830;SDS011;42713;42.676;23.352;2022-12-18T07:45:44;28.38;;;12.70;;
56830;SDS011;42713;42.676;23.352;2022-12-18T07:48:10;27.17;;;13.27;;
56830;SDS011;42713;42.676;23.352;2022-12-18T07:50:35;25.92;;;13.57;;
56830;SDS011;42713;42.676;23.352;2022-12-18T07:53:01;28.40;;;14.98;;
56830;SDS011;42713;42.676;23.352;2022-12-18T07:55:29;25.27;;;13.05;;
56830;SDS011;42713;42.676;23.352;2022-12-18T07:57:55;27.10;;;14.05;;
56830;SDS011;42713;42.676;23.352;2022-12-18T08:00:20;28.90;;;15.40;;
56830;SDS011;42713;42.676;23.352;2022-12-18T08:02:46;28.35;;;13.68;;
56830;SDS011;42713;42.676;23.352;2022-12-18T08:05:12;27.08;;;14.68;;
56830;SDS011;42713;42.676;23.352;2022-12-18T08:07:38;29.60;;;14.88;;
56830;SDS011;42713;42.676;23.352;2022-12-18T08:10:04;26.15;;;13.75;;
56830;SDS011;42713;42.676;23.352;2022-12-18T08:12:30;30.42;;;14.80;;
56830;SDS011;42713;42.676;23.352;2022-12-18T08:14:57;30.48;;;15.77;;
56830;SDS011;42713;42.676;23.352;2022-12-18T08:17:22;27.60;;;13.93;;
56830;SDS011;42713;42.676;23.352;2022-12-18T08:19:48;27.30;;;13.00;;
56830;SDS011;42713;42.676;23.352;2022-12-18T08:22:13;30.77;;;14.93;;
56830;SDS011;42713;42.676;23.352;2022-12-18T08:24:39;29.17;;;14.20;;
56830;SDS011;42713;42.676;23.352;2022-12-18T08:27:13;29.88;;;15.13;;
56830;SDS011;42713;42.676;23.352;2022-12-18T08:29:48;27.77;;;14.77;;
56830;SDS011;42713;42.676;23.352;2022-12-18T08:32:37;28.80;;;15.15;;
56830;SDS011;42713;42.676;23.352;2022-12-18T08:35:08;30.58;;;14.23;;
56830;SDS011;42713;42.676;23.352;2022-12-18T08:37:51;29.48;;;13.55;;
56830;SDS011;42713;42.676;23.352;2022-12-18T08:40:23;30.48;;;15.60;;
56830;SDS011;42713;42.676;23.352;2022-12-18T08:42:48;27.50;;;13.68;;
56830;SDS011;42713;42.676;23.352;2022-12-18T08:45:33;32.45;;;13.90;;
56830;SDS011;42713;42.676;23.352;2022-12-18T08:47:58;31.00;;;15.02;;
56830;SDS011;42713;42.676;23.352;2022-12-18T08:50:24;29.83;;;14.52;;
56830;SDS011;42713;42.676;23.352;2022-12-18T08:52:49;28.27;;;14.85;;
56830;SDS011;42713;42.676;23.352;2022-12-18T08:55:15;32.00;;;15.60;;
56830;SDS011;42713;42.676;23.352;2022-12-18T08:57:40;24.90;;;13.98;;
56830;SDS011;42713;42.676;23.352;2022-12-18T09:00:06;25.20;;;13.40;;
56830;SDS011;42713;42.676;23.352;2022-12-18T09:02:32;25.88;;;14.38;;
56830;SDS011;42713;42.676;23.352;2022-12-18T09:04:58;26.48;;;14.23;;
56830;SDS011;42713;42.676;23.352;2022-12-18T09:07:27;29.35;;;13.15;;
56830;SDS011;42713;42.676;23.352;2022-12-18T09:09:52;29.35;;;14.52;;
56830;SDS011;42713;42.676;23.352;2022-12-18T09:12:18;28.55;;;14.13;;
56830;SDS011;42713;42.676;23.352;2022-12-18T09:14:43;26.63;;;12.30;;
56830;SDS011;42713;42.676;23.352;2022-12-18T09:17:09;27.95;;;13.95;;
56830;SDS011;42713;42.676;23.352;2022-12-18T09:19:35;27.75;;;12.90;;
56830;SDS011;42713;42.676;23.352;2022-12-18T09:22:01;27.00;;;12.88;;
56830;SDS011;42713;42.676;23.352;2022-12-18T09:24:26;27.15;;;12.88;;
56830;SDS011;42713;42.676;23.352;2022-12-18T09:26:55;25.80;;;12.45;;
56830;SDS011;42713;42.676;23.352;2022-12-18T09:29:20;24.35;;;11.77;;
56830;SDS011;42713;42.676;23.352;2022-12-18T09:31:47;28.88;;;13.40;;
56830;SDS011;42713;42.676;23.352;2022-12-18T09:34:13;24.50;;;11.57;;
56830;SDS011;42713;42.676;23.352;2022-12-18T09:36:38;23.83;;;11.75;;
56830;SDS011;42713;42.676;23.352;2022-12-18T09:39:04;24.88;;;12.40;;
56830;SDS011;42713;42.676;23.352;2022-12-18T09:41:46;25.17;;;12.00;;
56830;SDS011;42713;42.676;23.352;2022-12-18T09:49:42;23.77;;;11.93;;
56830;SDS011;42713;42.676;23.352;2022-12-18T09:55:23;24.77;;;11.43;;
56830;SDS011;42713;42.676;23.352;2022-12-18T09:57:59;25.58;;;11.32;;
56830;SDS011;42713;42.676;23.352;2022-12-18T10:00:29;23.88;;;12.23;;
56830;SDS011;42713;42.676;23.352;2022-12-18T10:02:59;25.17;;;12.45;;
56830;SDS011;42713;42.676;23.352;2022-12-18T10:05:33;25.17;;;12.10;;
56830;SDS011;42713;42.676;23.352;2022-12-18T10:08:24;24.77;;;11.85;;
56830;SDS011;42713;42.676;23.352;2022-12-18T10:11:01;23.83;;;10.95;;
56830;SDS011;42713;42.676;23.352;2022-12-18T10:13:49;25.73;;;12.30;;
56830;SDS011;42713;42.676;23.352;2022-12-18T10:16:34;22.88;;;11.02;;
56830;SDS011;42713;42.676;23.352;2022-12-18T10:19:27;24.98;;;11.77;;
56830;SDS011;42713;42.676;23.352;2022-12-18T10:27:52;24.75;;;11.30;;
56830;SDS011;42713;42.676;23.352;2022-12-18T10:30:22;21.77;;;10.63;;
56830;SDS011;42713;42.676;23.352;2022-12-18T10:32:49;22.23;;;11.10;;
56830;SDS011;42713;42.676;23.352;2022-12-18T10:35:33;26.02;;;13.05;;
56830;SDS011;42713;42.676;23.352;2022-12-18T10:38:05;25.83;;;12.45;;
56830;SDS011;42713;42.676;23.352;2022-12-18T10:46:01;28.02;;;13.55;;
56830;SDS011;42713;42.676;23.352;2022-12-18T10:48:27;26.00;;;12.50;;
56830;SDS011;42713;42.676;23.352;2022-12-18T10:50:55;24.80;;;12.93;;
56830;SDS011;42713;42.676;23.352;2022-12-18T10:53:25;26.65;;;13.05;;
56830;SDS011;42713;42.676;23.352;2022-12-18T10:55:57;26.30;;;13.10;;
56830;SDS011;42713;42.676;23.352;2022-12-18T11:01:11;26.67;;;13.00;;
56830;SDS011;42713;42.676;23.352;2022-12-18T11:03:42;26.77;;;12.45;;
56830;SDS011;42713;42.676;23.352;2022-12-18T11:06:20;24.60;;;12.23;;
56830;SDS011;42713;42.676;23.352;2022-12-18T11:09:03;23.77;;;11.35;;
56830;SDS011;42713;42.676;23.352;2022-12-18T11:11:30;25.85;;;12.57;;
56830;SDS011;42713;42.676;23.352;2022-12-18T11:14:12;23.65;;;11.75;;
56830;SDS011;42713;42.676;23.352;2022-12-18T11:16:43;24.98;;;11.25;;
56830;SDS011;42713;42.676;23.352;2022-12-18T11:21:45;25.88;;;12.32;;
56830;SDS011;42713;42.676;23.352;2022-12-18T11:24:19;28.73;;;11.73;;
56830;SDS011;42713;42.676;23.352;2022-12-18T11:26:49;25.67;;;12.68;;
56830;SDS011;42713;42.676;23.352;2022-12-18T11:29:16;25.75;;;12.15;;
56830;SDS011;42713;42.676;23.352;2022-12-18T11:31:47;27.35;;;12.05;;
56830;SDS011;42713;42.676;23.352;2022-12-18T11:34:18;26.35;;;12.60;;
56830;SDS011;42713;42.676;23.352;2022-12-18T11:36:50;26.23;;;12.00;;
56830;SDS011;42713;42.676;23.352;2022-12-18T11:42:04;28.63;;;12.20;;
56830;SDS011;42713;42.676;23.352;2022-12-18T11:47:40;29.83;;;13.30;;
56830;SDS011;42713;42.676;23.352;2022-12-18T11:50:14;25.77;;;12.25;;
56830;SDS011;42713;42.676;23.352;2022-12-18T11:52:43;25.33;;;12.82;;
56830;SDS011;42713;42.676;23.352;2022-12-18T11:55:17;24.98;;;12.45;;
56830;SDS011;42713;42.676;23.352;2022-12-18T11:57:54;28.63;;;13.07;;
56830;SDS011;42713;42.676;23.352;2022-12-18T12:00:23;26.38;;;12.75;;
56830;SDS011;42713;42.676;23.352;2022-12-18T12:09:02;25.45;;;11.70;;
56830;SDS011;42713;42.676;23.352;2022-12-18T12:17:07;26.60;;;13.05;;
56830;SDS011;42713;42.676;23.352;2022-12-18T12:19:49;27.70;;;12.43;;
56830;SDS011;42713;42.676;23.352;2022-12-18T12:22:41;27.83;;;13.55;;
56830;SDS011;42713;42.676;23.352;2022-12-18T12:25:16;26.70;;;11.88;;
56830;SDS011;42713;42.676;23.352;2022-12-18T12:28:02;27.88;;;12.68;;
56830;SDS011;42713;42.676;23.352;2022-12-18T12:33:56;24.80;;;13.02;;
56830;SDS011;42713;42.676;23.352;2022-12-18T12:39:10;24.35;;;12.18;;
56830;SDS011;42713;42.676;23.352;2022-12-18T12:41:40;27.70;;;12.60;;
56830;SDS011;42713;42.676;23.352;2022-12-18T12:44:31;24.17;;;11.60;;
56830;SDS011;42713;42.676;23.352;2022-12-18T12:47:06;22.83;;;11.90;;
56830;SDS011;42713;42.676;23.352;2022-12-18T12:49:51;28.40;;;12.35;;
56830;SDS011;42713;42.676;23.352;2022-12-18T12:54:57;25.83;;;12.85;;
56830;SDS011;42713;42.676;23.352;2022-12-18T12:57:30;24.52;;;12.73;;
56830;SDS011;42713;42.676;23.352;2022-12-18T13:00:09;26.90;;;12.57;;
56830;SDS011;42713;42.676;23.352;2022-12-18T13:02:51;24.35;;;12.85;;
56830;SDS011;42713;42.676;23.352;2022-12-18T13:08:26;28.77;;;12.98;;
56830;SDS011;42713;42.676;23.352;2022-12-18T13:10:57;28.02;;;12.85;;
56830;SDS011;42713;42.676;23.352;2022-12-18T13:13:52;31.05;;;13.27;;
56830;SDS011;42713;42.676;23.352;2022-12-18T13:16:21;26.02;;;12.38;;
56830;SDS011;42713;42.676;23.352;2022-12-18T13:18:48;27.27;;;12.23;;
56830;SDS011;42713;42.676;23.352;2022-12-18T13:23:55;25.60;;;12.05;;
56830;SDS011;42713;42.676;23.352;2022-12-18T13:31:13;25.15;;;12.00;;
56830;SDS011;42713;42.676;23.352;2022-12-18T13:36:46;27.60;;;14.15;;
56830;SDS011;42713;42.676;23.352;2022-12-18T13:41:44;26.63;;;13.57;;
56830;SDS011;42713;42.676;23.352;2022-12-18T13:47:01;26.70;;;13.73;;
56830;SDS011;42713;42.676;23.352;2022-12-18T13:52:20;25.58;;;14.02;;
56830;SDS011;42713;42.676;23.352;2022-12-18T13:54:57;28.25;;;13.13;;
56830;SDS011;42713;42.676;23.352;2022-12-18T13:57:27;24.45;;;11.73;;
56830;SDS011;42713;42.676;23.352;2022-12-18T13:59:53;25.27;;;13.93;;
56830;SDS011;42713;42.676;23.352;2022-12-18T14:02:22;28.15;;;13.93;;
56830;SDS011;42713;42.676;23.352;2022-12-18T14:05:02;29.90;;;13.32;;
56830;SDS011;42713;42.676;23.352;2022-12-18T14:07:28;27.77;;;13.63;;
56830;SDS011;42713;42.676;23.352;2022-12-18T14:09:56;27.33;;;13.07;;
56830;SDS011;42713;42.676;23.352;2022-12-18T14:12:27;25.17;;;12.63;;
56830;SDS011;42713;42.676;23.352;2022-12-18T14:15:23;26.30;;;12.50;;
56830;SDS011;42713;42.676;23.352;2022-12-18T14:18:00;26.80;;;13.07;;
56830;SDS011;42713;42.676;23.352;2022-12-18T14:20:29;24.77;;;11.80;;
56830;SDS011;42713;42.676;23.352;2022-12-18T14:22:57;23.70;;;11.27;;
56830;SDS011;42713;42.676;23.352;2022-12-18T14:25:24;23.20;;;11.75;;
56830;SDS011;42713;42.676;23.352;2022-12-18T14:30:26;23.33;;;12.07;;
56830;SDS011;42713;42.676;23.352;2022-12-18T14:33:04;25.70;;;11.13;;
56830;SDS011;42713;42.676;23.352;2022-12-18T14:35:30;25.50;;;12.05;;
56830;SDS011;42713;42.676;23.352;2022-12-18T14:40:43;26.33;;;12.75;;
56830;SDS011;42713;42.676;23.352;2022-12-18T14:43:12;26.20;;;12.35;;
56830;SDS011;42713;42.676;23.352;2022-12-18T14:45:42;27.77;;;12.93;;
56830;SDS011;42713;42.676;23.352;2022-12-18T14:50:45;29.33;;;12.43;;
56830;SDS011;42713;42.676;23.352;2022-12-18T14:53:32;25.98;;;11.88;;
56830;SDS011;42713;42.676;23.352;2022-12-18T14:55:58;22.25;;;11.68;;
56830;SDS011;42713;42.676;23.352;2022-12-18T14:58:23;25.52;;;11.85;;
56830;SDS011;42713;42.676;23.352;2022-12-18T15:00:49;23.70;;;11.07;;
56830;SDS011;42713;42.676;23.352;2022-12-18T15:03:18;23.30;;;10.52;;
56830;SDS011;42713;42.676;23.352;2022-12-18T15:05:45;21.52;;;10.45;;
56830;SDS011;42713;42.676;23.352;2022-12-18T15:08:28;23.98;;;11.52;;
56830;SDS011;42713;42.676;23.352;2022-12-18T15:10:56;21.33;;;9.63;;
56830;SDS011;42713;42.676;23.352;2022-12-18T15:13:22;23.38;;;10.23;;
56830;SDS011;42713;42.676;23.352;2022-12-18T15:15:50;21.73;;;9.77;;
56830;SDS011;42713;42.676;23.352;2022-12-18T15:18:18;20.77;;;10.15;;
56830;SDS011;42713;42.676;23.352;2022-12-18T15:20:50;21.23;;;9.68;;
56830;SDS011;42713;42.676;23.352;2022-12-18T15:23:19;21.30;;;8.88;;
56830;SDS011;42713;42.676;23.352;2022-12-18T15:25:45;22.42;;;9.70;;
56830;SDS011;42713;42.676;23.352;2022-12-18T15:28:24;25.55;;;10.80;;
56830;SDS011;42713;42.676;23.352;2022-12-18T15:30:59;23.85;;;11.00;;
56830;SDS011;42713;42.676;23.352;2022-12-18T15:33:34;23.90;;;10.32;;
56830;SDS011;42713;42.676;23.352;2022-12-18T15:36:07;19.33;;;9.07;;
56830;SDS011;42713;42.676;23.352;2022-12-18T15:38:35;21.50;;;9.57;;
56830;SDS011;42713;42.676;23.352;2022-12-18T15:41:01;24.42;;;10.70;;
56830;SDS011;42713;42.676;23.352;2022-12-18T15:43:27;21.10;;;9.15;;
56830;SDS011;42713;42.676;23.352;2022-12-18T15:46:03;21.50;;;9.90;;
56830;SDS011;42713;42.676;23.352;2022-12-18T15:48:34;24.48;;;10.20;;
56830;SDS011;42713;42.676;23.352;2022-12-18T15:51:04;21.50;;;10.15;;
56830;SDS011;42713;42.676;23.352;2022-12-18T15:53:37;24.98;;;9.73;;
56830;SDS011;42713;42.676;23.352;2022-12-18T15:56:04;20.48;;;9.55;;
56830;SDS011;42713;42.676;23.352;2022-12-18T15:58:52;24.45;;;10.55;;
56830;SDS011;42713;42.676;23.352;2022-12-18T16:01:21;23.38;;;10.75;;
56830;SDS011;42713;42.676;23.352;2022-12-18T16:03:48;22.02;;;10.05;;
56830;SDS011;42713;42.676;23.352;2022-12-18T16:06:14;23.70;;;11.10;;
56830;SDS011;42713;42.676;23.352;2022-12-18T16:08:39;22.83;;;10.38;;
56830;SDS011;42713;42.676;23.352;2022-12-18T16:11:05;23.75;;;11.57;;
56830;SDS011;42713;42.676;23.352;2022-12-18T16:13:40;24.95;;;11.15;;
56830;SDS011;42713;42.676;23.352;2022-12-18T16:16:07;27.13;;;12.25;;
56830;SDS011;42713;42.676;23.352;2022-12-18T16:18:33;25.25;;;12.13;;
56830;SDS011;42713;42.676;23.352;2022-12-18T16:20:59;26.33;;;12.30;;
56830;SDS011;42713;42.676;23.352;2022-12-18T16:23:24;24.58;;;11.07;;